Okmulgee, Oklahoma
Current Conditions -  °F | °C
As of 2:35 AM on Tuesday 21 Oct 2014 (Local Time) from KOKM Reporting Station
Scattered Clouds Scattered Clouds  
Wind Chill: 58°   Ceiling: Unl
Heat Index: 58°   Visibility: 7mi
Dew Point: 58°   Wind: 5mph
Humidity: 97%   Direction: 40°NE
Pressure: 30.06"   Gusts: NA
Location:  35.62°N, 95.97°W
Report Text: KOKM 210735Z AUTO 04004KT 7SM SCT055 15/14 A3006 RMK AO2 T01460142
Loading
Personal Weather Stations






























Interactive Weather Map
Tropical Storm Tracking
New forecast layout! Learn more

10-Day Weather Forecast

Advertisements
Track Severe Weather on mobile